Wakefield, Virginia
Current Conditions -  °F | °C
As of 5:54 PM on Thursday 27 Nov 2014 (Local Time) from KAKQ Reporting Station
Broken Clouds Broken Clouds  
Wind Chill: 41°   Ceiling: 8000
Heat Index: 41°   Visibility: 10mi
Dew Point: 37°   Wind: 3mph
Humidity: 86%   Direction: 340°NNW
Pressure: 30.11"   Gusts: NA
Location:  36.97°N, 76.99°W
Report Text: KAKQ 272254Z AUTO 34003KT 10SM SCT050 SCT060 BKN080 05/03 A3011 RMK AO2 SLP200 T00500028 TSNO
Loading
Personal Weather Stations






























Interactive Weather Map New forecast layout! Learn more

10-Day Weather Forecast

Advertisements
Track Severe Weather on mobile